sensor_id;sensor_type;location;lat;lon;timestamp;temperature;humidity
56162;DHT22;42045;52.986;6.014;2023-05-07T00:01:16;13.40;99.90
56162;DHT22;42045;52.986;6.014;2023-05-07T00:03:41;13.40;99.90
56162;DHT22;42045;52.986;6.014;2023-05-07T00:06:07;13.50;99.90
56162;DHT22;42045;52.986;6.014;2023-05-07T00:08:32;13.40;99.90
56162;DHT22;42045;52.986;6.014;2023-05-07T00:10:58;13.40;99.90
56162;DHT22;42045;52.986;6.014;2023-05-07T00:13:24;13.40;99.90
56162;DHT22;42045;52.986;6.014;2023-05-07T00:15:49;13.40;99.90
56162;DHT22;42045;52.986;6.014;2023-05-07T00:18:15;13.40;99.90
56162;DHT22;42045;52.986;6.014;2023-05-07T00:20:41;13.40;99.90
56162;DHT22;42045;52.986;6.014;2023-05-07T00:23:07;13.30;99.90
56162;DHT22;42045;52.986;6.014;2023-05-07T00:25:32;13.40;99.90
56162;DHT22;42045;52.986;6.014;2023-05-07T00:27:58;13.40;99.90
56162;DHT22;42045;52.986;6.014;2023-05-07T00:30:28;13.40;99.90
56162;DHT22;42045;52.986;6.014;2023-05-07T00:32:54;13.40;99.90
56162;DHT22;42045;52.986;6.014;2023-05-07T00:35:20;13.40;99.90
56162;DHT22;42045;52.986;6.014;2023-05-07T00:37:46;13.30;99.90
56162;DHT22;42045;52.986;6.014;2023-05-07T00:40:11;13.30;99.90
56162;DHT22;42045;52.986;6.014;2023-05-07T00:42:37;13.30;99.90
56162;DHT22;42045;52.986;6.014;2023-05-07T00:45:03;13.30;99.90
56162;DHT22;42045;52.986;6.014;2023-05-07T00:47:28;13.30;99.90
56162;DHT22;42045;52.986;6.014;2023-05-07T00:49:54;13.30;99.90
56162;DHT22;42045;52.986;6.014;2023-05-07T00:52:21;13.20;99.90
56162;DHT22;42045;52.986;6.014;2023-05-07T00:54:49;13.20;99.90
56162;DHT22;42045;52.986;6.014;2023-05-07T00:57:14;13.20;99.90
56162;DHT22;42045;52.986;6.014;2023-05-07T00:59:41;13.20;99.90
56162;DHT22;42045;52.986;6.014;2023-05-07T01:02:07;13.20;99.90
56162;DHT22;42045;52.986;6.014;2023-05-07T01:04:33;13.10;99.90
56162;DHT22;42045;52.986;6.014;2023-05-07T01:07:00;13.20;99.90
56162;DHT22;42045;52.986;6.014;2023-05-07T01:09:26;13.20;99.90
56162;DHT22;42045;52.986;6.014;2023-05-07T01:11:53;13.10;99.90
56162;DHT22;42045;52.986;6.014;2023-05-07T01:14:20;13.10;99.90
56162;DHT22;42045;52.986;6.014;2023-05-07T01:16:47;13.10;99.90
56162;DHT22;42045;52.986;6.014;2023-05-07T01:19:14;13.10;99.90
56162;DHT22;42045;52.986;6.014;2023-05-07T01:21:48;13.10;99.90
56162;DHT22;42045;52.986;6.014;2023-05-07T01:24:15;13.10;99.90
56162;DHT22;42045;52.986;6.014;2023-05-07T01:26:43;13.00;99.90
56162;DHT22;42045;52.986;6.014;2023-05-07T01:29:09;13.00;99.90
56162;DHT22;42045;52.986;6.014;2023-05-07T01:31:36;13.00;99.90
56162;DHT22;42045;52.986;6.014;2023-05-07T01:34:03;13.00;99.90
56162;DHT22;42045;52.986;6.014;2023-05-07T01:36:30;13.00;99.90
56162;DHT22;42045;52.986;6.014;2023-05-07T01:38:57;13.00;99.90
56162;DHT22;42045;52.986;6.014;2023-05-07T01:41:24;13.00;99.90
56162;DHT22;42045;52.986;6.014;2023-05-07T01:43:50;12.90;99.90
56162;DHT22;42045;52.986;6.014;2023-05-07T01:46:18;13.00;99.90
56162;DHT22;42045;52.986;6.014;2023-05-07T01:48:45;13.00;99.90
56162;DHT22;42045;52.986;6.014;2023-05-07T01:51:11;12.90;99.90
56162;DHT22;42045;52.986;6.014;2023-05-07T01:53:38;12.90;99.90
56162;DHT22;42045;52.986;6.014;2023-05-07T01:56:05;12.90;99.90
56162;DHT22;42045;52.986;6.014;2023-05-07T01:58:30;12.90;99.90
56162;DHT22;42045;52.986;6.014;2023-05-07T02:00:56;12.90;99.90
56162;DHT22;42045;52.986;6.014;2023-05-07T02:03:22;12.90;99.90
56162;DHT22;42045;52.986;6.014;2023-05-07T02:05:47;12.80;99.90
56162;DHT22;42045;52.986;6.014;2023-05-07T02:08:13;12.80;99.90
56162;DHT22;42045;52.986;6.014;2023-05-07T02:10:39;12.80;99.90
56162;DHT22;42045;52.986;6.014;2023-05-07T02:13:04;12.80;99.90
56162;DHT22;42045;52.986;6.014;2023-05-07T02:15:30;12.80;99.90
56162;DHT22;42045;52.986;6.014;2023-05-07T02:18:07;12.80;99.90
56162;DHT22;42045;52.986;6.014;2023-05-07T02:20:33;12.70;99.90
56162;DHT22;42045;52.986;6.014;2023-05-07T02:22:59;12.70;99.90
56162;DHT22;42045;52.986;6.014;2023-05-07T02:25:24;12.70;99.90
56162;DHT22;42045;52.986;6.014;2023-05-07T02:27:50;12.70;99.90
56162;DHT22;42045;52.986;6.014;2023-05-07T02:30:16;12.60;99.90
56162;DHT22;42045;52.986;6.014;2023-05-07T02:32:41;12.60;99.90
56162;DHT22;42045;52.986;6.014;2023-05-07T02:35:07;12.60;99.90
56162;DHT22;42045;52.986;6.014;2023-05-07T02:37:33;12.50;99.90
56162;DHT22;42045;52.986;6.014;2023-05-07T02:39:58;12.50;99.90
56162;DHT22;42045;52.986;6.014;2023-05-07T02:42:24;12.50;99.90
56162;DHT22;42045;52.986;6.014;2023-05-07T02:44:50;12.40;99.90
56162;DHT22;42045;52.986;6.014;2023-05-07T02:47:15;12.40;99.90
56162;DHT22;42045;52.986;6.014;2023-05-07T02:49:41;12.40;99.90
56162;DHT22;42045;52.986;6.014;2023-05-07T02:52:07;12.40;99.90
56162;DHT22;42045;52.986;6.014;2023-05-07T02:54:33;12.40;99.90
56162;DHT22;42045;52.986;6.014;2023-05-07T02:56:58;12.30;99.90
56162;DHT22;42045;52.986;6.014;2023-05-07T02:59:26;12.30;99.90
56162;DHT22;42045;52.986;6.014;2023-05-07T03:01:52;12.30;99.90
56162;DHT22;42045;52.986;6.014;2023-05-07T03:04:17;12.30;99.90
56162;DHT22;42045;52.986;6.014;2023-05-07T03:06:43;12.30;99.90
56162;DHT22;42045;52.986;6.014;2023-05-07T03:09:09;12.20;99.90
56162;DHT22;42045;52.986;6.014;2023-05-07T03:11:34;12.20;99.90
56162;DHT22;42045;52.986;6.014;2023-05-07T03:14:01;12.20;99.90
56162;DHT22;42045;52.986;6.014;2023-05-07T03:16:27;12.10;99.90
56162;DHT22;42045;52.986;6.014;2023-05-07T03:18:53;12.10;99.90
56162;DHT22;42045;52.986;6.014;2023-05-07T03:21:18;12.10;99.90
56162;DHT22;42045;52.986;6.014;2023-05-07T03:23:44;12.00;99.90
56162;DHT22;42045;52.986;6.014;2023-05-07T03:26:10;12.00;99.90
56162;DHT22;42045;52.986;6.014;2023-05-07T03:28:36;12.00;99.90
56162;DHT22;42045;52.986;6.014;2023-05-07T03:31:02;11.90;99.90
56162;DHT22;42045;52.986;6.014;2023-05-07T03:33:28;11.90;99.90
56162;DHT22;42045;52.986;6.014;2023-05-07T03:35:53;11.80;99.90
56162;DHT22;42045;52.986;6.014;2023-05-07T03:38:19;11.80;99.90
56162;DHT22;42045;52.986;6.014;2023-05-07T03:40:45;11.80;99.90
56162;DHT22;42045;52.986;6.014;2023-05-07T03:43:10;11.80;99.90
56162;DHT22;42045;52.986;6.014;2023-05-07T03:45:36;11.70;99.90
56162;DHT22;42045;52.986;6.014;2023-05-07T03:48:02;11.70;99.90
56162;DHT22;42045;52.986;6.014;2023-05-07T03:50:27;11.70;99.90
56162;DHT22;42045;52.986;6.014;2023-05-07T03:52:53;11.70;99.90
56162;DHT22;42045;52.986;6.014;2023-05-07T03:55:19;11.70;99.90
56162;DHT22;42045;52.986;6.014;2023-05-07T03:57:44;11.60;99.90
56162;DHT22;42045;52.986;6.014;2023-05-07T04:00:11;11.60;99.90
56162;DHT22;42045;52.986;6.014;2023-05-07T04:02:37;11.60;99.90
56162;DHT22;42045;52.986;6.014;2023-05-07T04:05:02;11.60;99.90
56162;DHT22;42045;52.986;6.014;2023-05-07T04:07:28;11.50;99.90
56162;DHT22;42045;52.986;6.014;2023-05-07T04:09:54;11.50;99.90
56162;DHT22;42045;52.986;6.014;2023-05-07T04:12:19;11.50;99.90
56162;DHT22;42045;52.986;6.014;2023-05-07T04:14:45;11.50;99.90
56162;DHT22;42045;52.986;6.014;2023-05-07T04:17:11;11.50;99.90
56162;DHT22;42045;52.986;6.014;2023-05-07T04:19:36;11.50;99.90
56162;DHT22;42045;52.986;6.014;2023-05-07T04:22:02;11.50;99.90
56162;DHT22;42045;52.986;6.014;2023-05-07T04:24:31;11.50;99.90
56162;DHT22;42045;52.986;6.014;2023-05-07T04:26:57;11.40;99.90
56162;DHT22;42045;52.986;6.014;2023-05-07T04:29:24;11.40;99.90
56162;DHT22;42045;52.986;6.014;2023-05-07T04:31:49;11.40;99.90
56162;DHT22;42045;52.986;6.014;2023-05-07T04:34:15;11.40;99.90
56162;DHT22;42045;52.986;6.014;2023-05-07T04:36:41;11.40;99.90
56162;DHT22;42045;52.986;6.014;2023-05-07T04:39:07;11.40;99.90
56162;DHT22;42045;52.986;6.014;2023-05-07T04:41:35;11.40;99.90
56162;DHT22;42045;52.986;6.014;2023-05-07T04:44:01;11.40;99.90
56162;DHT22;42045;52.986;6.014;2023-05-07T04:46:30;11.40;99.90
56162;DHT22;42045;52.986;6.014;2023-05-07T04:48:55;11.40;99.90
56162;DHT22;42045;52.986;6.014;2023-05-07T04:51:21;11.40;99.90
56162;DHT22;42045;52.986;6.014;2023-05-07T04:53:47;11.40;99.90
56162;DHT22;42045;52.986;6.014;2023-05-07T04:56:13;11.50;99.90
56162;DHT22;42045;52.986;6.014;2023-05-07T04:58:38;11.50;99.90
56162;DHT22;42045;52.986;6.014;2023-05-07T05:01:04;11.50;99.90
56162;DHT22;42045;52.986;6.014;2023-05-07T05:03:30;11.50;99.90
56162;DHT22;42045;52.986;6.014;2023-05-07T05:05:56;11.50;99.90
56162;DHT22;42045;52.986;6.014;2023-05-07T05:08:25;11.50;99.90
56162;DHT22;42045;52.986;6.014;2023-05-07T05:10:51;11.50;99.90
56162;DHT22;42045;52.986;6.014;2023-05-07T05:13:16;11.50;99.90
56162;DHT22;42045;52.986;6.014;2023-05-07T05:15:42;11.50;99.90
56162;DHT22;42045;52.986;6.014;2023-05-07T05:18:08;11.50;99.90
56162;DHT22;42045;52.986;6.014;2023-05-07T05:20:33;11.50;99.90
56162;DHT22;42045;52.986;6.014;2023-05-07T05:22:59;11.50;99.90
56162;DHT22;42045;52.986;6.014;2023-05-07T05:25:25;11.60;99.90
56162;DHT22;42045;52.986;6.014;2023-05-07T05:27:50;11.60;99.90
56162;DHT22;42045;52.986;6.014;2023-05-07T05:30:16;11.70;99.90
56162;DHT22;42045;52.986;6.014;2023-05-07T05:32:42;11.60;99.90
56162;DHT22;42045;52.986;6.014;2023-05-07T05:35:08;11.70;99.90
56162;DHT22;42045;52.986;6.014;2023-05-07T05:37:33;11.70;99.90
56162;DHT22;42045;52.986;6.014;2023-05-07T05:39:59;11.70;99.90
56162;DHT22;42045;52.986;6.014;2023-05-07T05:42:25;11.80;99.90
56162;DHT22;42045;52.986;6.014;2023-05-07T05:44:50;11.80;99.90
56162;DHT22;42045;52.986;6.014;2023-05-07T05:47:16;11.80;99.90
56162;DHT22;42045;52.986;6.014;2023-05-07T05:49:41;11.80;99.90
56162;DHT22;42045;52.986;6.014;2023-05-07T05:52:09;11.90;99.90
56162;DHT22;42045;52.986;6.014;2023-05-07T05:54:34;12.00;99.90
56162;DHT22;42045;52.986;6.014;2023-05-07T05:57:00;12.00;99.90
56162;DHT22;42045;52.986;6.014;2023-05-07T05:59:29;12.10;99.90
56162;DHT22;42045;52.986;6.014;2023-05-07T06:01:55;12.10;99.90
56162;DHT22;42045;52.986;6.014;2023-05-07T06:04:20;12.10;99.90
56162;DHT22;42045;52.986;6.014;2023-05-07T06:06:46;12.20;99.90
56162;DHT22;42045;52.986;6.014;2023-05-07T06:09:12;12.20;99.90
56162;DHT22;42045;52.986;6.014;2023-05-07T06:11:37;12.30;99.90
56162;DHT22;42045;52.986;6.014;2023-05-07T06:14:03;12.30;99.90
56162;DHT22;42045;52.986;6.014;2023-05-07T06:16:29;12.40;99.90
56162;DHT22;42045;52.986;6.014;2023-05-07T06:18:54;12.50;99.90
56162;DHT22;42045;52.986;6.014;2023-05-07T06:21:20;12.60;99.90
56162;DHT22;42045;52.986;6.014;2023-05-07T06:23:45;12.90;99.90
56162;DHT22;42045;52.986;6.014;2023-05-07T06:26:11;13.20;99.90
56162;DHT22;42045;52.986;6.014;2023-05-07T06:28:37;13.60;99.90
56162;DHT22;42045;52.986;6.014;2023-05-07T06:33:38;14.00;99.90
56162;DHT22;42045;52.986;6.014;2023-05-07T06:36:04;14.10;99.90
56162;DHT22;42045;52.986;6.014;2023-05-07T06:38:30;14.10;99.90
56162;DHT22;42045;52.986;6.014;2023-05-07T06:40:56;14.20;99.90
56162;DHT22;42045;52.986;6.014;2023-05-07T06:43:22;14.20;99.90
56162;DHT22;42045;52.986;6.014;2023-05-07T06:45:48;14.70;99.90
56162;DHT22;42045;52.986;6.014;2023-05-07T06:48:14;14.80;99.90
56162;DHT22;42045;52.986;6.014;2023-05-07T06:50:39;14.60;99.90
56162;DHT22;42045;52.986;6.014;2023-05-07T06:53:05;14.60;99.90
56162;DHT22;42045;52.986;6.014;2023-05-07T06:55:31;14.90;99.90
56162;DHT22;42045;52.986;6.014;2023-05-07T06:57:57;15.00;99.90
56162;DHT22;42045;52.986;6.014;2023-05-07T07:00:29;15.50;99.90
56162;DHT22;42045;52.986;6.014;2023-05-07T07:02:56;16.10;99.90
56162;DHT22;42045;52.986;6.014;2023-05-07T07:05:21;16.50;99.90
56162;DHT22;42045;52.986;6.014;2023-05-07T07:07:47;16.50;99.90
56162;DHT22;42045;52.986;6.014;2023-05-07T07:10:21;16.40;99.90
56162;DHT22;42045;52.986;6.014;2023-05-07T07:12:48;16.30;99.90
56162;DHT22;42045;52.986;6.014;2023-05-07T07:15:14;16.20;99.90
56162;DHT22;42045;52.986;6.014;2023-05-07T07:17:40;16.00;99.90
56162;DHT22;42045;52.986;6.014;2023-05-07T07:20:06;15.70;99.90
56162;DHT22;42045;52.986;6.014;2023-05-07T07:22:32;15.50;99.90
56162;DHT22;42045;52.986;6.014;2023-05-07T07:24:58;15.40;99.90
56162;DHT22;42045;52.986;6.014;2023-05-07T07:27:23;15.30;99.90
56162;DHT22;42045;52.986;6.014;2023-05-07T07:29:49;15.30;99.90
56162;DHT22;42045;52.986;6.014;2023-05-07T07:32:15;15.10;99.90
56162;DHT22;42045;52.986;6.014;2023-05-07T07:34:41;14.90;99.90
56162;DHT22;42045;52.986;6.014;2023-05-07T07:37:06;15.00;99.90
56162;DHT22;42045;52.986;6.014;2023-05-07T07:39:32;15.00;99.90
56162;DHT22;42045;52.986;6.014;2023-05-07T07:41:58;15.20;99.90
56162;DHT22;42045;52.986;6.014;2023-05-07T07:44:24;15.20;99.90
56162;DHT22;42045;52.986;6.014;2023-05-07T07:46:50;15.40;99.90
56162;DHT22;42045;52.986;6.014;2023-05-07T07:49:16;15.50;99.90
56162;DHT22;42045;52.986;6.014;2023-05-07T07:51:42;15.50;99.90
56162;DHT22;42045;52.986;6.014;2023-05-07T07:54:08;15.60;99.90
56162;DHT22;42045;52.986;6.014;2023-05-07T07:56:33;15.60;99.90
56162;DHT22;42045;52.986;6.014;2023-05-07T07:58:59;15.70;99.90
56162;DHT22;42045;52.986;6.014;2023-05-07T08:01:25;15.70;99.90
56162;DHT22;42045;52.986;6.014;2023-05-07T08:03:52;15.90;99.90
56162;DHT22;42045;52.986;6.014;2023-05-07T08:06:18;16.00;99.90
56162;DHT22;42045;52.986;6.014;2023-05-07T08:08:44;16.20;99.90
56162;DHT22;42045;52.986;6.014;2023-05-07T08:11:10;16.40;99.90
56162;DHT22;42045;52.986;6.014;2023-05-07T08:13:36;16.60;99.90
56162;DHT22;42045;52.986;6.014;2023-05-07T08:16:03;16.60;99.90
56162;DHT22;42045;52.986;6.014;2023-05-07T08:18:29;16.40;99.90
56162;DHT22;42045;52.986;6.014;2023-05-07T08:20:55;16.40;99.90
56162;DHT22;42045;52.986;6.014;2023-05-07T08:23:21;16.30;99.90
56162;DHT22;42045;52.986;6.014;2023-05-07T08:25:47;16.50;99.90
56162;DHT22;42045;52.986;6.014;2023-05-07T08:28:12;16.40;99.90
56162;DHT22;42045;52.986;6.014;2023-05-07T08:30:38;16.40;99.90
56162;DHT22;42045;52.986;6.014;2023-05-07T08:33:04;16.50;99.90
56162;DHT22;42045;52.986;6.014;2023-05-07T08:35:29;16.60;99.90
56162;DHT22;42045;52.986;6.014;2023-05-07T08:37:55;16.80;99.90
56162;DHT22;42045;52.986;6.014;2023-05-07T08:40:25;17.00;99.90
56162;DHT22;42045;52.986;6.014;2023-05-07T08:42:52;17.00;99.90
56162;DHT22;42045;52.986;6.014;2023-05-07T08:45:19;17.00;99.90
56162;DHT22;42045;52.986;6.014;2023-05-07T08:47:54;17.10;99.90
56162;DHT22;42045;52.986;6.014;2023-05-07T08:50:21;17.00;99.90
56162;DHT22;42045;52.986;6.014;2023-05-07T08:52:47;16.90;99.90
56162;DHT22;42045;52.986;6.014;2023-05-07T08:55:14;16.90;99.90
56162;DHT22;42045;52.986;6.014;2023-05-07T08:57:40;16.80;99.90
56162;DHT22;42045;52.986;6.014;2023-05-07T09:00:06;16.90;99.90
56162;DHT22;42045;52.986;6.014;2023-05-07T09:02:33;17.00;99.90
56162;DHT22;42045;52.986;6.014;2023-05-07T09:05:00;17.30;99.90
56162;DHT22;42045;52.986;6.014;2023-05-07T09:07:25;17.50;99.90
56162;DHT22;42045;52.986;6.014;2023-05-07T09:09:52;17.50;99.90
56162;DHT22;42045;52.986;6.014;2023-05-07T09:12:18;17.50;99.90
56162;DHT22;42045;52.986;6.014;2023-05-07T09:14:45;17.60;99.90
56162;DHT22;42045;52.986;6.014;2023-05-07T09:17:11;17.70;99.90
56162;DHT22;42045;52.986;6.014;2023-05-07T09:19:37;17.80;99.90
56162;DHT22;42045;52.986;6.014;2023-05-07T09:22:05;17.90;99.90
56162;DHT22;42045;52.986;6.014;2023-05-07T09:24:32;17.90;99.90
56162;DHT22;42045;52.986;6.014;2023-05-07T09:27:06;17.90;99.90
56162;DHT22;42045;52.986;6.014;2023-05-07T09:29:34;17.80;99.90
56162;DHT22;42045;52.986;6.014;2023-05-07T09:32:03;17.80;99.90
56162;DHT22;42045;52.986;6.014;2023-05-07T09:34:30;18.00;99.90
56162;DHT22;42045;52.986;6.014;2023-05-07T09:36:58;18.20;99.90
56162;DHT22;42045;52.986;6.014;2023-05-07T09:39:24;18.20;99.90
56162;DHT22;42045;52.986;6.014;2023-05-07T09:41:50;18.20;99.90
56162;DHT22;42045;52.986;6.014;2023-05-07T09:44:18;18.00;99.90
56162;DHT22;42045;52.986;6.014;2023-05-07T09:46:45;17.80;99.90
56162;DHT22;42045;52.986;6.014;2023-05-07T09:49:18;17.60;99.90
56162;DHT22;42045;52.986;6.014;2023-05-07T09:51:50;17.60;99.90
56162;DHT22;42045;52.986;6.014;2023-05-07T09:54:18;17.80;99.90
56162;DHT22;42045;52.986;6.014;2023-05-07T09:56:45;17.80;99.90
56162;DHT22;42045;52.986;6.014;2023-05-07T09:59:13;17.90;99.90
56162;DHT22;42045;52.986;6.014;2023-05-07T10:01:43;17.80;99.90
56162;DHT22;42045;52.986;6.014;2023-05-07T10:04:10;17.90;99.90
56162;DHT22;42045;52.986;6.014;2023-05-07T10:06:37;17.90;99.90
56162;DHT22;42045;52.986;6.014;2023-05-07T10:09:06;18.10;99.90
56162;DHT22;42045;52.986;6.014;2023-05-07T10:11:33;18.20;99.90
56162;DHT22;42045;52.986;6.014;2023-05-07T10:14:00;18.30;99.90
56162;DHT22;42045;52.986;6.014;2023-05-07T10:16:31;18.30;99.90
56162;DHT22;42045;52.986;6.014;2023-05-07T10:18:58;18.20;99.90
56162;DHT22;42045;52.986;6.014;2023-05-07T10:21:26;18.20;99.90
56162;DHT22;42045;52.986;6.014;2023-05-07T10:24:03;18.20;99.90
56162;DHT22;42045;52.986;6.014;2023-05-07T10:26:32;18.20;99.90
56162;DHT22;42045;52.986;6.014;2023-05-07T10:29:04;18.30;99.90
56162;DHT22;42045;52.986;6.014;2023-05-07T10:32:01;18.30;99.90
56162;DHT22;42045;52.986;6.014;2023-05-07T10:34:40;18.30;99.90
56162;DHT22;42045;52.986;6.014;2023-05-07T10:37:07;18.30;99.90
56162;DHT22;42045;52.986;6.014;2023-05-07T10:39:34;18.30;99.90
56162;DHT22;42045;52.986;6.014;2023-05-07T10:42:10;18.40;99.90
56162;DHT22;42045;52.986;6.014;2023-05-07T10:44:36;18.50;99.90
56162;DHT22;42045;52.986;6.014;2023-05-07T10:47:09;18.60;99.90
56162;DHT22;42045;52.986;6.014;2023-05-07T10:49:44;18.60;99.90
56162;DHT22;42045;52.986;6.014;2023-05-07T10:52:23;18.50;99.90
56162;DHT22;42045;52.986;6.014;2023-05-07T10:57:50;18.50;99.90
56162;DHT22;42045;52.986;6.014;2023-05-07T11:05:30;18.60;99.90
56162;DHT22;42045;52.986;6.014;2023-05-07T11:08:00;18.80;99.90
56162;DHT22;42045;52.986;6.014;2023-05-07T11:13:14;18.70;99.90
56162;DHT22;42045;52.986;6.014;2023-05-07T11:15:43;18.80;99.90
56162;DHT22;42045;52.986;6.014;2023-05-07T11:18:11;18.70;99.90
56162;DHT22;42045;52.986;6.014;2023-05-07T11:26:10;18.70;99.90
56162;DHT22;42045;52.986;6.014;2023-05-07T11:28:41;18.80;99.90
56162;DHT22;42045;52.986;6.014;2023-05-07T11:31:07;18.80;99.90
56162;DHT22;42045;52.986;6.014;2023-05-07T11:33:34;18.90;99.90
56162;DHT22;42045;52.986;6.014;2023-05-07T11:36:01;18.90;99.90
56162;DHT22;42045;52.986;6.014;2023-05-07T11:38:29;18.80;99.90
56162;DHT22;42045;52.986;6.014;2023-05-07T11:40:56;18.90;99.90
56162;DHT22;42045;52.986;6.014;2023-05-07T11:43:22;19.20;99.90
56162;DHT22;42045;52.986;6.014;2023-05-07T11:45:48;19.40;99.90
56162;DHT22;42045;52.986;6.014;2023-05-07T11:48:14;19.60;99.90
56162;DHT22;42045;52.986;6.014;2023-05-07T11:50:59;19.70;99.90
56162;DHT22;42045;52.986;6.014;2023-05-07T11:53:26;19.80;99.90
56162;DHT22;42045;52.986;6.014;2023-05-07T11:55:54;20.00;99.90
56162;DHT22;42045;52.986;6.014;2023-05-07T11:58:22;20.00;99.90
56162;DHT22;42045;52.986;6.014;2023-05-07T12:00:54;20.00;99.90
56162;DHT22;42045;52.986;6.014;2023-05-07T12:03:20;19.90;99.90
56162;DHT22;42045;52.986;6.014;2023-05-07T12:05:47;20.00;99.90
56162;DHT22;42045;52.986;6.014;2023-05-07T12:08:17;20.10;99.90
56162;DHT22;42045;52.986;6.014;2023-05-07T12:10:43;20.10;99.90
56162;DHT22;42045;52.986;6.014;2023-05-07T12:13:16;20.10;99.90
56162;DHT22;42045;52.986;6.014;2023-05-07T12:15:42;20.10;99.90
56162;DHT22;42045;52.986;6.014;2023-05-07T12:18:08;20.10;99.90
56162;DHT22;42045;52.986;6.014;2023-05-07T12:20:36;20.00;99.90
56162;DHT22;42045;52.986;6.014;2023-05-07T12:23:02;19.90;99.90
56162;DHT22;42045;52.986;6.014;2023-05-07T12:25:32;20.00;99.90
56162;DHT22;42045;52.986;6.014;2023-05-07T12:28:01;20.10;99.90
56162;DHT22;42045;52.986;6.014;2023-05-07T12:30:27;20.20;99.90
56162;DHT22;42045;52.986;6.014;2023-05-07T12:32:54;20.10;99.90
56162;DHT22;42045;52.986;6.014;2023-05-07T12:35:29;20.10;99.90
56162;DHT22;42045;52.986;6.014;2023-05-07T12:37:56;19.80;99.90
56162;DHT22;42045;52.986;6.014;2023-05-07T12:40:22;19.70;99.90
56162;DHT22;42045;52.986;6.014;2023-05-07T12:42:53;19.70;99.90
56162;DHT22;42045;52.986;6.014;2023-05-07T12:45:21;19.80;99.90
56162;DHT22;42045;52.986;6.014;2023-05-07T12:47:47;19.90;99.90
56162;DHT22;42045;52.986;6.014;2023-05-07T12:50:14;20.00;99.90
56162;DHT22;42045;52.986;6.014;2023-05-07T12:52:40;19.90;99.90
56162;DHT22;42045;52.986;6.014;2023-05-07T12:55:06;19.90;99.90
56162;DHT22;42045;52.986;6.014;2023-05-07T12:57:43;20.10;99.90
56162;DHT22;42045;52.986;6.014;2023-05-07T13:00:11;20.20;99.90
56162;DHT22;42045;52.986;6.014;2023-05-07T13:02:41;20.20;99.90
56162;DHT22;42045;52.986;6.014;2023-05-07T13:05:10;20.10;99.90
56162;DHT22;42045;52.986;6.014;2023-05-07T13:07:36;20.10;99.90
56162;DHT22;42045;52.986;6.014;2023-05-07T13:10:03;20.20;99.90
56162;DHT22;42045;52.986;6.014;2023-05-07T13:12:28;20.00;99.90
56162;DHT22;42045;52.986;6.014;2023-05-07T13:14:54;20.00;99.90
56162;DHT22;42045;52.986;6.014;2023-05-07T13:17:20;20.00;99.90
56162;DHT22;42045;52.986;6.014;2023-05-07T13:19:46;20.00;99.90
56162;DHT22;42045;52.986;6.014;2023-05-07T13:22:11;20.00;99.90
56162;DHT22;42045;52.986;6.014;2023-05-07T13:24:37;20.00;99.90
56162;DHT22;42045;52.986;6.014;2023-05-07T13:27:02;20.10;99.90
56162;DHT22;42045;52.986;6.014;2023-05-07T13:29:28;20.20;99.90
56162;DHT22;42045;52.986;6.014;2023-05-07T13:31:56;20.20;99.90
56162;DHT22;42045;52.986;6.014;2023-05-07T13:34:22;20.30;99.90
56162;DHT22;42045;52.986;6.014;2023-05-07T13:36:48;20.40;99.90
56162;DHT22;42045;52.986;6.014;2023-05-07T13:39:14;20.40;99.90
56162;DHT22;42045;52.986;6.014;2023-05-07T13:41:39;20.40;99.90
56162;DHT22;42045;52.986;6.014;2023-05-07T13:44:05;20.40;99.90
56162;DHT22;42045;52.986;6.014;2023-05-07T13:46:31;20.40;99.90
56162;DHT22;42045;52.986;6.014;2023-05-07T13:48:56;20.40;99.90
56162;DHT22;42045;52.986;6.014;2023-05-07T13:51:22;20.40;99.90
56162;DHT22;42045;52.986;6.014;2023-05-07T13:53:48;20.30;99.90
56162;DHT22;42045;52.986;6.014;2023-05-07T13:56:14;20.30;99.90
56162;DHT22;42045;52.986;6.014;2023-05-07T13:58:40;20.30;99.90
56162;DHT22;42045;52.986;6.014;2023-05-07T14:01:31;20.30;99.90
56162;DHT22;42045;52.986;6.014;2023-05-07T14:03:57;20.50;99.90
56162;DHT22;42045;52.986;6.014;2023-05-07T14:06:24;20.60;99.90
56162;DHT22;42045;52.986;6.014;2023-05-07T14:08:50;20.60;99.90
56162;DHT22;42045;52.986;6.014;2023-05-07T14:11:16;20.70;99.90
56162;DHT22;42045;52.986;6.014;2023-05-07T14:13:42;20.70;99.90
56162;DHT22;42045;52.986;6.014;2023-05-07T14:16:07;20.80;99.90
56162;DHT22;42045;52.986;6.014;2023-05-07T14:18:33;20.80;99.90
56162;DHT22;42045;52.986;6.014;2023-05-07T14:21:00;20.80;99.90
56162;DHT22;42045;52.986;6.014;2023-05-07T14:23:25;20.80;99.90
56162;DHT22;42045;52.986;6.014;2023-05-07T14:25:53;20.70;99.90
56162;DHT22;42045;52.986;6.014;2023-05-07T14:28:19;20.60;99.90
56162;DHT22;42045;52.986;6.014;2023-05-07T14:30:45;20.50;99.90
56162;DHT22;42045;52.986;6.014;2023-05-07T14:33:10;20.50;99.90
56162;DHT22;42045;52.986;6.014;2023-05-07T14:35:36;20.40;99.90
56162;DHT22;42045;52.986;6.014;2023-05-07T14:38:02;20.40;99.90
56162;DHT22;42045;52.986;6.014;2023-05-07T14:40:28;20.40;99.90
56162;DHT22;42045;52.986;6.014;2023-05-07T14:42:53;20.40;99.90
56162;DHT22;42045;52.986;6.014;2023-05-07T14:45:20;20.30;99.90
56162;DHT22;42045;52.986;6.014;2023-05-07T14:47:46;20.40;99.90
56162;DHT22;42045;52.986;6.014;2023-05-07T14:50:12;20.60;99.90
56162;DHT22;42045;52.986;6.014;2023-05-07T14:52:37;20.60;99.90
56162;DHT22;42045;52.986;6.014;2023-05-07T14:55:04;20.70;99.90
56162;DHT22;42045;52.986;6.014;2023-05-07T14:57:30;20.90;99.90
56162;DHT22;42045;52.986;6.014;2023-05-07T15:00:00;21.10;99.90
56162;DHT22;42045;52.986;6.014;2023-05-07T15:02:26;21.10;99.90
56162;DHT22;42045;52.986;6.014;2023-05-07T15:04:52;21.10;99.90
56162;DHT22;42045;52.986;6.014;2023-05-07T15:07:18;21.00;99.90
56162;DHT22;42045;52.986;6.014;2023-05-07T15:09:44;21.00;99.90
56162;DHT22;42045;52.986;6.014;2023-05-07T15:12:10;21.00;99.90
56162;DHT22;42045;52.986;6.014;2023-05-07T15:14:39;20.80;99.90
56162;DHT22;42045;52.986;6.014;2023-05-07T15:17:05;20.70;99.90
56162;DHT22;42045;52.986;6.014;2023-05-07T15:19:31;20.60;99.90
56162;DHT22;42045;52.986;6.014;2023-05-07T15:21:57;20.50;99.90
56162;DHT22;42045;52.986;6.014;2023-05-07T15:24:25;20.40;99.90
56162;DHT22;42045;52.986;6.014;2023-05-07T15:26:53;20.40;99.90
56162;DHT22;42045;52.986;6.014;2023-05-07T15:29:19;20.40;99.90
56162;DHT22;42045;52.986;6.014;2023-05-07T15:31:45;20.50;99.90
56162;DHT22;42045;52.986;6.014;2023-05-07T15:34:11;20.50;99.90
56162;DHT22;42045;52.986;6.014;2023-05-07T15:36:37;20.40;99.90
56162;DHT22;42045;52.986;6.014;2023-05-07T15:39:02;20.20;99.90
56162;DHT22;42045;52.986;6.014;2023-05-07T15:41:29;20.20;99.90
56162;DHT22;42045;52.986;6.014;2023-05-07T15:43:54;20.20;99.90
56162;DHT22;42045;52.986;6.014;2023-05-07T15:46:21;20.20;99.90